Time;durP1;ratioP1;P1;durP2;ratioP2;P2;SDS_P1;SDS_P2;PMS_P1;PMS_P2;Temp;Humidity;BMP_temperature;BMP_pressure;BME280_temperature;BME280_humidity;BME280_pressure;Samples;Min_cycle;Max_cycle;Signal;HPM_P1;HPM_P2
2023/01/22 00:00:09;;;;;;;22.25;12.77;;;;;;;0.85;81.49;100342.84;423608;23;1097;-87
2023/01/22 00:00:21;;;;;;;21.35;12.85;;;;;;;0.88;81.93;100342.88;423013;23;1913;-88
2023/01/22 00:00:33;;;;;;;21.15;12.27;;;;;;;0.93;81.84;100345.53;420574;23;1129;-87
2023/01/22 00:00:55;;;;;;;20.00;11.68;;;;;;;0.97;81.66;100342.22;421067;23;1131;-88
2023/01/22 00:01:29;;;;;;;21.48;13.88;;;;;;;0.89;81.87;100341.22;418482;23;1246;-89
2023/01/22 00:02:04;;;;;;;;;;;;;;;;;;;;;
2023/01/22 00:02:50;;;;;;;;;;;;;;;;;;;;;
2023/01/22 00:03:33;;;;;;;;;;;;;;;;;;;;;
2023/01/22 00:04:06;;;;;;;24.38;13.45;;;;;;;0.88;81.66;100342.03;417928;23;1014;-90
2023/01/22 00:04:28;;;;;;;;;;;;;;;;;;;;;
2023/01/22 00:05:08;;;;;;;17.65;10.80;;;;;;;0.88;81.70;100336.91;412551;24;1167;-87
2023/01/22 00:05:27;;;;;;;22.00;13.25;;;;;;;0.76;82.08;100338.41;409788;24;1114;-86
2023/01/22 00:05:52;;;;;;;;;;;;;;;;;;;;;
2023/01/22 00:06:20;;;;;;;25.67;17.35;;;;;;;0.65;82.13;100339.91;414684;23;1187;-87
2023/01/22 00:06:56;;;;;;;24.05;15.68;;;;;;;0.62;82.19;100342.41;414243;23;1109;-87
2023/01/22 00:07:18;;;;;;;;;;;;;;;;;;;;;
2023/01/22 00:07:51;;;;;;;20.80;13.57;;;;;;;0.66;82.72;100341.63;409208;24;1122;-87
2023/01/22 00:08:26;;;;;;;;;;;;;;;;;;;;;
2023/01/22 00:09:02;;;;;;;21.35;12.65;;;;;;;0.69;82.02;100339.16;415992;23;1084;-87
2023/01/22 00:09:47;;;;;;;;;;;;;;;;;;;;;
2023/01/22 00:10:10;;;;;;;20.35;12.43;;;;;;;0.82;81.90;100337.66;413874;23;1134;-90
2023/01/22 00:10:40;;;;;;;22.92;12.52;;;;;;;0.73;81.74;100333.25;411467;24;1071;-89
2023/01/22 00:11:17;;;;;;;21.30;12.60;;;;;;;0.67;82.42;100340.81;408595;24;1106;-88
2023/01/22 00:12:02;;;;;;;;;;;;;;;;;;;;;
2023/01/22 00:12:36;;;;;;;;;;;;;;;;;;;;;
2023/01/22 00:12:50;;;;;;;22.17;13.65;;;;;;;0.84;82.22;100336.00;413379;23;1153;-89
2023/01/22 00:13:06;;;;;;;22.90;12.90;;;;;;;0.86;81.71;100334.31;413765;23;839;-88
2023/01/22 00:13:22;;;;;;;24.25;13.27;;;;;;;0.86;81.42;100338.59;413021;23;1109;-89
2023/01/22 00:13:36;;;;;;;22.67;13.77;;;;;;;0.89;81.21;100338.66;413345;23;1097;-88
2023/01/22 00:13:56;;;;;;;21.48;13.30;;;;;;;0.87;81.21;100330.94;413652;23;1190;-88
2023/01/22 00:14:10;;;;;;;22.42;13.00;;;;;;;0.86;81.17;100334.31;414571;23;720;-88
2023/01/22 00:14:23;;;;;;;23.80;12.85;;;;;;;0.82;81.62;100336.81;412543;24;752;-87
2023/01/22 00:14:36;;;;;;;23.65;13.25;;;;;;;0.78;81.43;100339.28;411408;24;940;-89
2023/01/22 00:15:09;;;;;;;29.02;19.13;;;;;;;0.86;81.96;100339.44;406529;24;1114;-88
2023/01/22 00:15:22;;;;;;;28.75;18.25;;;;;;;0.92;81.81;100341.25;406350;24;727;-89
2023/01/22 00:15:37;;;;;;;25.95;15.75;;;;;;;0.99;82.09;100341.38;405785;24;1545;-88
2023/01/22 00:15:52;;;;;;;25.48;14.77;;;;;;;0.99;81.76;100336.25;405828;24;980;-88
2023/01/22 00:16:05;;;;;;;24.17;14.07;;;;;;;0.96;81.73;100335.34;405865;24;1023;-88
2023/01/22 00:16:19;;;;;;;20.75;12.52;;;;;;;0.98;82.01;100328.56;406641;24;1091;-88
2023/01/22 00:16:31;;;;;;;20.30;11.60;;;;;;;1.02;81.97;100332.03;412708;23;1357;-87
2023/01/22 00:16:43;;;;;;;21.65;11.70;;;;;;;0.98;81.56;100333.69;413613;23;791;-89
2023/01/22 00:16:55;;;;;;;21.83;11.98;;;;;;;1.00;81.91;100326.88;415469;23;809;-89
2023/01/22 00:17:10;;;;;;;21.90;12.43;;;;;;;0.98;81.61;100334.53;415520;23;943;-88
2023/01/22 00:17:32;;;;;;;22.73;12.82;;;;;;;0.85;81.86;100331.75;413042;23;1142;-88
2023/01/22 00:17:52;;;;;;;20.45;12.10;;;;;;;0.81;82.02;100329.97;413730;23;739;-88
2023/01/22 00:18:07;;;;;;;20.25;12.55;;;;;;;0.76;81.83;100327.31;413915;23;1235;-88
2023/01/22 00:18:22;;;;;;;21.55;13.13;;;;;;;0.76;81.90;100333.28;413299;23;1087;-89
2023/01/22 00:18:38;;;;;;;19.17;11.85;;;;;;;0.79;81.94;100335.06;411777;24;1232;-88
2023/01/22 00:18:50;;;;;;;17.67;10.70;;;;;;;0.74;82.19;100331.53;411600;23;919;-88
2023/01/22 00:19:03;;;;;;;19.33;11.10;;;;;;;0.77;82.21;100329.91;408779;24;1207;-88
2023/01/22 00:19:15;;;;;;;21.35;11.93;;;;;;;0.74;82.42;100326.41;408685;24;905;-90
2023/01/22 00:19:35;;;;;;;21.70;12.30;;;;;;;0.83;82.12;100323.19;411668;23;894;-88
2023/01/22 00:19:56;;;;;;;20.23;11.75;;;;;;;0.79;82.59;100327.38;413510;23;879;-88
2023/01/22 00:20:11;;;;;;;19.23;12.00;;;;;;;0.79;82.91;100328.22;414502;23;798;-88
2023/01/22 00:20:25;;;;;;;19.85;12.75;;;;;;;0.79;82.14;100333.34;413357;23;1204;-90
2023/01/22 00:20:39;;;;;;;21.17;13.30;;;;;;;0.75;82.01;100325.59;412120;23;962;-88
2023/01/22 00:20:53;;;;;;;20.30;12.82;;;;;;;0.79;81.94;100333.34;412840;23;1788;-89
2023/01/22 00:21:12;;;;;;;17.98;11.10;;;;;;;0.84;82.07;100335.13;411705;23;1065;-88
2023/01/22 00:21:26;;;;;;;16.65;10.27;;;;;;;0.86;82.92;100328.34;411482;24;1905;-88
2023/01/22 00:21:38;;;;;;;17.88;10.77;;;;;;;0.90;82.69;100330.97;411551;23;1234;-88
2023/01/22 00:21:52;;;;;;;18.92;10.98;;;;;;;0.95;82.09;100331.06;407675;24;1023;-89
2023/01/22 00:22:09;;;;;;;18.38;10.57;;;;;;;0.99;82.33;100330.28;407704;24;1024;-88
2023/01/22 00:22:25;;;;;;;17.73;10.75;;;;;;;0.94;81.87;100326.78;409678;23;901;-88
2023/01/22 00:22:40;;;;;;;17.92;11.13;;;;;;;0.89;81.91;100328.41;409859;24;1141;-86
2023/01/22 00:22:53;;;;;;;18.58;11.27;;;;;;;0.92;82.17;100326.75;410461;24;789;-86
2023/01/22 00:23:06;;;;;;;19.25;11.50;;;;;;;0.96;82.00;100330.22;410054;24;1124;-88
2023/01/22 00:23:19;;;;;;;19.70;11.52;;;;;;;1.01;81.80;100328.63;411485;24;894;-89
2023/01/22 00:23:35;;;;;;;19.17;11.00;;;;;;;1.02;81.12;100325.22;410891;24;1016;-88
2023/01/22 00:23:47;;;;;;;18.92;11.07;;;;;;;1.01;81.97;100328.63;411523;24;1107;-88
2023/01/22 00:24:02;;;;;;;19.08;11.35;;;;;;;0.99;81.72;100327.72;413331;23;1036;-87
2023/01/22 00:24:14;;;;;;;19.50;11.55;;;;;;;0.96;81.46;100328.53;414934;23;946;-88
2023/01/22 00:24:26;;;;;;;20.17;11.93;;;;;;;0.97;81.64;100325.13;414166;23;864;-88
2023/01/22 00:24:40;;;;;;;20.45;12.05;;;;;;;0.94;81.80;100326.78;412979;23;1156;-89
2023/01/22 00:24:53;;;;;;;18.88;11.27;;;;;;;0.90;82.10;100327.56;415032;23;1190;-89
2023/01/22 00:25:11;;;;;;;19.70;12.20;;;;;;;0.93;81.71;100325.06;414920;23;1068;-87
2023/01/22 00:25:23;;;;;;;18.27;11.88;;;;;;;0.94;81.88;100332.75;415122;23;808;-88
2023/01/22 00:25:36;;;;;;;18.30;11.18;;;;;;;0.86;81.84;100330.91;413510;23;846;-88
2023/01/22 00:25:50;;;;;;;19.20;11.45;;;;;;;0.83;82.04;100328.31;413378;23;1145;-88
2023/01/22 00:26:06;;;;;;;18.10;11.48;;;;;;;0.88;82.01;100329.22;413467;23;1045;-88
2023/01/22 00:26:19;;;;;;;18.92;11.68;;;;;;;0.89;81.72;100324.16;413519;23;869;-88
2023/01/22 00:26:35;;;;;;;19.48;11.50;;;;;;;0.92;81.91;100326.75;410790;24;1368;-88
2023/01/22 00:26:52;;;;;;;19.15;11.35;;;;;;;0.94;81.94;100331.91;411423;24;846;-89
2023/01/22 00:27:05;;;;;;;19.10;11.32;;;;;;;0.99;82.22;100325.16;412464;24;815;-88
2023/01/22 00:27:17;;;;;;;19.50;11.27;;;;;;;1.00;81.82;100327.72;411129;24;1010;-89
2023/01/22 00:27:52;;;;;;;17.98;10.90;;;;;;;1.06;81.54;100326.97;410509;23;1152;-88
2023/01/22 00:28:16;;;;;;;;;;;;;;;;;;;;;
2023/01/22 00:28:40;;;;;;;20.75;14.48;;;;;;;1.04;81.80;100326.09;411579;23;1162;-88
2023/01/22 00:28:53;;;;;;;18.35;11.23;;;;;;;1.06;81.73;100326.97;413518;23;1097;-87
2023/01/22 00:29:05;;;;;;;16.95;10.32;;;;;;;1.03;81.63;100321.81;412306;23;1177;-89
2023/01/22 00:29:22;;;;;;;16.10;10.00;;;;;;;1.09;81.54;100321.06;414378;23;779;-88
2023/01/22 00:29:50;;;;;;;15.77;9.80;;;;;;;1.12;81.05;100321.97;415762;23;877;-88
2023/01/22 00:30:20;;;;;;;18.58;11.65;;;;;;;1.07;81.59;100318.47;417725;23;808;-88
2023/01/22 00:30:34;;;;;;;21.50;12.88;;;;;;;1.05;81.50;100325.28;417714;23;875;-89
2023/01/22 00:30:46;;;;;;;22.27;13.27;;;;;;;1.03;81.59;100321.81;415825;23;971;-88
2023/01/22 00:31:05;;;;;;;21.17;12.63;;;;;;;1.07;81.73;100328.72;416550;23;680;-89
2023/01/22 00:31:29;;;;;;;;;;;;;;;;;;;;;
2023/01/22 00:31:53;;;;;;;17.17;10.55;;;;;;;1.10;81.67;100328.75;415085;23;1007;-88
2023/01/22 00:32:05;;;;;;;19.15;10.77;;;;;;;1.09;81.71;100321.06;415457;23;1234;-88
2023/01/22 00:32:18;;;;;;;19.33;10.43;;;;;;;1.11;81.30;100320.25;415568;23;1531;-90
2023/01/22 00:32:34;;;;;;;18.40;10.57;;;;;;;1.08;81.14;100322.75;415519;23;829;-88
2023/01/22 00:32:47;;;;;;;16.95;10.55;;;;;;;1.07;81.55;100318.47;415634;23;1787;-89
2023/01/22 00:33:04;;;;;;;15.90;10.07;;;;;;;0.99;80.95;100320.06;418396;23;732;-89
2023/01/22 00:33:20;;;;;;;17.83;10.63;;;;;;;1.01;80.83;100323.50;418384;23;795;-88
2023/01/22 00:33:34;;;;;;;18.42;10.77;;;;;;;1.02;81.01;100321.78;418308;23;721;-88
2023/01/22 00:33:50;;;;;;;17.70;10.45;;;;;;;0.92;81.18;100320.78;417098;23;1002;-89
2023/01/22 00:34:03;;;;;;;17.80;10.20;;;;;;;0.93;81.64;100320.81;417064;23;1059;-89
2023/01/22 00:34:19;;;;;;;16.90;9.95;;;;;;;1.04;81.91;100323.53;416932;23;1238;-88
2023/01/22 00:34:31;;;;;;;15.77;9.52;;;;;;;1.09;81.75;100327.06;417330;23;1085;-88
2023/01/22 00:34:49;;;;;;;15.73;9.93;;;;;;;1.13;81.27;100328.81;416821;23;1218;-88
2023/01/22 00:35:01;;;;;;;17.60;10.82;;;;;;;1.18;80.99;100319.50;417638;23;989;-88
2023/01/22 00:35:16;;;;;;;18.15;10.98;;;;;;;1.20;81.64;100320.38;417364;23;1083;-88
2023/01/22 00:35:40;;;;;;;18.52;11.35;;;;;;;1.13;81.23;100326.25;417377;23;1117;-87
2023/01/22 00:35:52;;;;;;;20.45;13.90;;;;;;;1.06;81.47;100316.75;418422;23;815;-88
2023/01/22 00:36:09;;;;;;;18.88;13.07;;;;;;;1.09;81.10;100327.06;417269;23;1075;-89
2023/01/22 00:36:26;;;;;;;17.58;11.35;;;;;;;1.08;81.25;100320.19;422364;23;997;-89
2023/01/22 00:36:41;;;;;;;17.20;10.63;;;;;;;1.07;81.48;100328.72;423543;23;1208;-87
2023/01/22 00:36:54;;;;;;;17.67;11.05;;;;;;;1.10;81.31;100322.78;423723;23;1040;-89
2023/01/22 00:37:07;;;;;;;17.60;10.93;;;;;;;1.12;81.17;100321.97;423919;23;1537;-89
2023/01/22 00:37:37;;;;;;;;;;;;;;;;;;;;;
2023/01/22 00:37:50;;;;;;;18.40;11.75;;;;;;;1.16;80.67;100323.72;423182;23;1030;-88
2023/01/22 00:38:04;;;;;;;17.25;10.52;;;;;;;1.19;81.43;100318.69;424649;23;745;-89
2023/01/22 00:38:17;;;;;;;16.60;10.35;;;;;;;1.24;81.11;100318.75;423429;23;949;-89
2023/01/22 00:38:35;;;;;;;16.88;10.70;;;;;;;1.28;80.79;100322.22;422592;23;1021;-87
2023/01/22 00:39:15;;;;;;;18.55;10.55;;;;;;;1.20;80.49;100320.38;420341;23;1135;-88
2023/01/22 00:39:27;;;;;;;18.52;10.73;;;;;;;1.09;81.14;100321.94;419047;23;1470;-89
2023/01/22 00:39:42;;;;;;;19.30;11.27;;;;;;;1.01;81.46;100323.50;417637;23;942;-88
2023/01/22 00:40:02;;;;;;;22.25;12.57;;;;;;;1.05;81.08;100322.72;416099;23;924;-88
2023/01/22 00:40:16;;;;;;;21.40;12.57;;;;;;;1.00;81.38;100321.75;416512;23;788;-88
2023/01/22 00:40:30;;;;;;;20.08;12.68;;;;;;;0.99;81.93;100320.06;416350;23;780;-88
2023/01/22 00:40:52;;;;;;;22.15;14.23;;;;;;;1.02;81.69;100325.22;416508;23;780;-87
2023/01/22 00:41:22;;;;;;;20.60;13.40;;;;;;;0.98;81.91;100323.44;414919;23;1110;-88
2023/01/22 00:41:34;;;;;;;20.50;11.93;;;;;;;1.01;81.88;100320.94;416481;23;810;-88
2023/01/22 00:41:52;;;;;;;18.75;11.55;;;;;;;1.01;81.47;100318.38;417322;23;1158;-88
2023/01/22 00:42:14;;;;;;;20.10;11.88;;;;;;;1.04;81.79;100322.69;417237;23;1019;-88
2023/01/22 00:42:38;;;;;;;20.02;11.38;;;;;;;1.12;81.97;100316.00;415154;23;1094;-88
2023/01/22 00:42:54;;;;;;;19.90;12.40;;;;;;;1.17;81.48;100322.06;415375;23;1885;-89
2023/01/22 00:43:10;;;;;;;20.27;12.85;;;;;;;1.14;81.56;100322.84;415180;23;1162;-88
2023/01/22 00:43:22;;;;;;;20.48;12.45;;;;;;;1.16;81.35;100323.72;416320;23;789;-88
2023/01/22 00:43:47;;;;;;;19.10;11.38;;;;;;;1.15;81.37;100321.16;415236;23;1049;-88
2023/01/22 00:44:04;;;;;;;17.77;10.90;;;;;;;1.22;81.65;100322.13;416186;23;908;-88
2023/01/22 00:44:16;;;;;;;16.73;10.63;;;;;;;1.24;81.11;100315.31;417172;23;1652;-88
2023/01/22 00:44:32;;;;;;;16.52;10.60;;;;;;;1.22;81.21;100328.09;418906;23;880;-88
2023/01/22 00:44:49;;;;;;;19.15;12.35;;;;;;;1.25;81.01;100327.28;418559;23;899;-89
2023/01/22 00:45:01;;;;;;;20.05;12.60;;;;;;;1.26;81.01;100319.63;417649;23;1530;-88
2023/01/22 00:45:15;;;;;;;21.40;12.93;;;;;;;1.18;81.22;100319.50;417602;23;851;-89
2023/01/22 00:45:35;;;;;;;22.42;13.60;;;;;;;1.08;80.82;100322.75;415018;23;1024;-89
2023/01/22 00:45:55;;;;;;;21.67;12.85;;;;;;;1.10;80.88;100318.50;417531;23;953;-88
2023/01/22 00:46:09;;;;;;;20.70;12.30;;;;;;;1.15;81.53;100321.16;417507;23;1111;-88
2023/01/22 00:46:23;;;;;;;19.00;11.55;;;;;;;1.19;81.67;100322.94;417470;23;963;-88
2023/01/22 00:46:58;;;;;;;17.70;10.95;;;;;;;1.15;81.10;100322.03;417584;23;898;-88
2023/01/22 00:47:34;;;;;;;16.17;10.15;;;;;;;1.17;80.79;100320.34;418318;23;1157;-89
2023/01/22 00:47:56;;;;;;;16.05;9.93;;;;;;;1.23;80.86;100317.03;419690;23;845;-89
2023/01/22 00:48:14;;;;;;;17.40;10.75;;;;;;;1.27;80.54;100323.03;418774;23;995;-89
2023/01/22 00:48:33;;;;;;;18.73;10.80;;;;;;;1.24;80.71;100313.63;420299;23;790;-88
2023/01/22 00:48:51;;;;;;;18.63;11.50;;;;;;;1.27;80.71;100318.81;418980;23;1135;-89
2023/01/22 00:49:06;;;;;;;20.25;12.75;;;;;;;1.31;80.72;100323.13;419192;23;1017;-88
2023/01/22 00:49:35;;;;;;;17.42;10.63;;;;;;;1.28;80.84;100322.22;419730;23;1002;-88
2023/01/22 00:49:47;;;;;;;15.77;10.18;;;;;;;1.30;81.06;100315.41;419522;23;862;-89
2023/01/22 00:49:59;;;;;;;15.43;10.00;;;;;;;1.33;80.60;100320.59;419173;23;970;-89
2023/01/22 00:50:19;;;;;;;15.10;9.32;;;;;;;1.39;80.62;100320.69;419716;23;1735;-89
2023/01/22 00:50:31;;;;;;;14.90;9.63;;;;;;;1.40;80.45;100319.84;417785;23;1066;-88
2023/01/22 00:50:43;;;;;;;14.73;9.73;;;;;;;1.43;80.56;100321.59;417934;23;1637;-88
2023/01/22 00:51:00;;;;;;;15.32;9.50;;;;;;;1.42;80.51;100317.31;420016;23;748;-87
2023/01/22 00:51:14;;;;;;;15.98;9.73;;;;;;;1.23;80.17;100321.28;419588;23;997;-88
2023/01/22 00:51:29;;;;;;;16.50;9.98;;;;;;;1.19;80.52;100320.38;417528;23;1130;-88
2023/01/22 00:51:45;;;;;;;16.48;11.15;;;;;;;1.14;80.98;100317.72;417482;23;1038;-88
2023/01/22 00:51:58;;;;;;;15.65;10.50;;;;;;;1.14;80.77;100325.41;418501;23;705;-89
2023/01/22 00:52:10;;;;;;;14.38;9.38;;;;;;;1.15;80.46;100319.47;417951;23;944;-89
2023/01/22 00:52:32;;;;;;;;;;;;;;;;;;;;;
2023/01/22 00:52:46;;;;;;;16.30;9.48;;;;;;;1.28;80.53;100322.22;417834;23;889;-88
2023/01/22 00:52:59;;;;;;;15.55;9.73;;;;;;;1.24;80.65;100320.44;417030;23;1199;-89
2023/01/22 00:53:18;;;;;;;16.13;9.43;;;;;;;1.21;80.36;100321.28;416420;23;792;-88
2023/01/22 00:53:31;;;;;;;15.65;9.30;;;;;;;1.19;80.23;100318.69;417023;23;1646;-89
2023/01/22 00:53:43;;;;;;;14.88;9.50;;;;;;;1.24;80.96;100318.75;417427;23;1011;-88
2023/01/22 00:53:56;;;;;;;15.15;9.32;;;;;;;1.26;80.55;100316.22;418363;23;729;-88
2023/01/22 00:54:14;;;;;;;15.68;9.40;;;;;;;1.25;80.32;100322.16;417592;23;924;-88
2023/01/22 00:54:26;;;;;;;15.52;9.65;;;;;;;1.21;80.76;100316.16;417284;23;1097;-89
2023/01/22 00:54:41;;;;;;;15.82;9.57;;;;;;;1.16;80.41;100323.72;416483;23;1079;-88
2023/01/22 00:54:53;;;;;;;16.25;9.52;;;;;;;1.16;80.97;100317.75;417409;23;1160;-89
2023/01/22 00:55:07;;;;;;;17.02;10.05;;;;;;;1.12;80.37;100311.72;418252;23;714;-88
2023/01/22 00:55:20;;;;;;;17.80;10.80;;;;;;;1.17;81.03;100312.66;419362;23;968;-89
2023/01/22 00:55:39;;;;;;;17.70;11.10;;;;;;;1.22;80.75;100312.72;419134;23;1174;-89
2023/01/22 00:56:04;;;;;;;16.80;11.23;;;;;;;1.20;80.77;100312.69;423801;23;898;-89
2023/01/22 00:56:18;;;;;;;19.90;14.05;;;;;;;1.15;80.73;100314.34;423273;23;1142;-89
2023/01/22 00:56:30;;;;;;;22.08;16.42;;;;;;;1.14;81.54;100319.44;423774;23;1320;-87
2023/01/22 00:56:44;;;;;;;20.60;14.82;;;;;;;1.17;80.92;100315.22;423992;23;1148;-87
2023/01/22 00:56:56;;;;;;;20.25;13.95;;;;;;;1.20;80.64;100315.25;423887;23;938;-89
2023/01/22 00:57:10;;;;;;;18.40;12.32;;;;;;;1.20;80.95;100317.81;424534;23;688;-89
2023/01/22 00:57:28;;;;;;;18.23;11.63;;;;;;;1.17;80.43;100310.09;421823;23;857;-88
2023/01/22 00:57:40;;;;;;;16.83;10.45;;;;;;;1.20;81.32;100320.38;420465;23;993;-90
2023/01/22 00:57:53;;;;;;;18.42;10.63;;;;;;;1.25;81.04;100317.03;419063;23;1293;-88
2023/01/22 00:58:09;;;;;;;20.83;12.10;;;;;;;1.28;80.88;100317.09;419945;23;798;-88
2023/01/22 00:58:22;;;;;;;19.88;12.20;;;;;;;1.30;80.99;100312.88;417456;23;954;-89
2023/01/22 00:58:34;;;;;;;17.77;10.90;;;;;;;1.28;80.60;100317.09;417238;23;1176;-88
2023/01/22 00:58:46;;;;;;;16.23;10.50;;;;;;;1.25;80.93;100312.81;417527;23;1153;-89
2023/01/22 00:59:00;;;;;;;15.60;10.25;;;;;;;1.27;80.64;100316.25;417018;23;1154;-88
2023/01/22 00:59:13;;;;;;;16.08;10.05;;;;;;;1.26;80.79;100311.09;417722;23;934;-89
2023/01/22 00:59:32;;;;;;;15.38;9.15;;;;;;;1.29;80.88;100318.81;419211;23;1086;-88
2023/01/22 00:59:45;;;;;;;14.95;9.13;;;;;;;1.31;80.68;100314.56;419709;23;1105;-89
2023/01/22 01:00:01;;;;;;;15.63;9.43;;;;;;;1.22;80.25;100312.72;420958;23;1080;-89
2023/01/22 01:00:14;;;;;;;16.50;9.68;;;;;;;1.26;80.37;100309.38;421539;23;1156;-88
2023/01/22 01:00:35;;;;;;;17.70;9.57;;;;;;;1.29;80.27;100308.56;422432;23;774;-89
2023/01/22 01:00:56;;;;;;;17.92;9.40;;;;;;;1.23;80.35;100313.59;422958;23;799;-88
2023/01/22 01:01:14;;;;;;;16.40;9.55;;;;;;;1.26;80.92;100313.66;421383;23;1026;-89
2023/01/22 01:01:31;;;;;;;15.88;10.20;;;;;;;1.28;80.43;100312.84;421689;23;1705;-88
2023/01/22 01:01:49;;;;;;;14.98;9.95;;;;;;;1.26;80.69;100308.53;421677;23;896;-89
2023/01/22 01:02:15;;;;;;;14.32;9.48;;;;;;;1.27;80.48;100316.25;421801;23;955;-87
2023/01/22 01:03:25;;;;;;;15.02;9.75;;;;;;;1.30;80.30;100316.28;421673;23;901;-88
2023/01/22 01:03:26;;;;;;;16.20;9.95;;;;;;;1.25;80.28;100307.69;423799;23;960;-89
2023/01/22 01:03:42;;;;;;;18.05;11.07;;;;;;;1.24;80.18;100310.22;423763;23;1012;-89
2023/01/22 01:04:05;;;;;;;;;;;;;;;;;;;;;
2023/01/22 01:04:29;;;;;;;16.20;9.90;;;;;;;1.22;80.58;100311.88;421414;23;972;-89
2023/01/22 01:04:43;;;;;;;15.20;9.80;;;;;;;1.18;80.56;100311.81;421100;23;889;-89
2023/01/22 01:05:00;;;;;;;14.50;9.05;;;;;;;1.20;80.85;100307.59;421727;23;982;-89
2023/01/22 01:05:14;;;;;;;14.45;8.90;;;;;;;1.25;80.53;100307.69;419811;23;911;-89
2023/01/22 01:05:26;;;;;;;15.38;9.45;;;;;;;1.27;80.70;100310.25;419669;23;927;-88
2023/01/22 01:05:40;;;;;;;15.77;9.77;;;;;;;1.26;80.39;100313.66;419652;23;944;-89
2023/01/22 01:06:01;;;;;;;16.55;10.13;;;;;;;1.24;80.63;100305.94;419664;23;954;-89
2023/01/22 01:06:18;;;;;;;17.33;10.60;;;;;;;1.27;80.54;100315.34;422898;23;799;-89
2023/01/22 01:06:31;;;;;;;16.42;10.88;;;;;;;1.14;80.24;100310.03;421665;23;1352;-89
2023/01/22 01:06:46;;;;;;;16.92;10.95;;;;;;;1.10;81.05;100308.28;421719;23;816;-88
2023/01/22 01:07:02;;;;;;;17.13;10.43;;;;;;;1.07;80.91;100307.38;419641;23;925;-89
2023/01/22 01:07:20;;;;;;;14.98;9.13;;;;;;;1.12;80.66;100311.72;419568;23;1143;-89
2023/01/22 01:07:32;;;;;;;14.40;9.35;;;;;;;1.12;80.82;100306.59;417208;23;845;-89
2023/01/22 01:07:44;;;;;;;15.10;9.88;;;;;;;1.06;80.74;100316.75;417453;23;1034;-89
2023/01/22 01:07:58;;;;;;;16.67;10.73;;;;;;;1.05;81.06;100304.78;416008;23;811;-88
2023/01/22 01:08:14;;;;;;;15.90;10.20;;;;;;;1.07;80.90;100313.34;419791;23;888;-89
2023/01/22 01:08:28;;;;;;;14.43;9.30;;;;;;;0.97;81.02;100311.50;419644;23;1028;-89
2023/01/22 01:08:41;;;;;;;16.70;10.77;;;;;;;1.02;81.37;100309.84;418643;23;718;-89
2023/01/22 01:09:04;;;;;;;17.92;11.50;;;;;;;1.04;81.39;100313.28;417613;23;867;-89
2023/01/22 01:09:17;;;;;;;15.43;10.35;;;;;;;0.99;81.48;100310.66;417535;23;971;-89
2023/01/22 01:09:34;;;;;;;14.93;9.50;;;;;;;1.04;81.47;100308.19;417788;23;996;-89
2023/01/22 01:09:53;;;;;;;15.30;8.90;;;;;;;1.09;81.32;100314.25;417540;23;1053;-89
2023/01/22 01:10:06;;;;;;;14.38;8.85;;;;;;;1.03;81.67;100311.59;417192;23;1051;-89
2023/01/22 01:10:23;;;;;;;14.77;9.10;;;;;;;1.03;81.35;100309.03;419559;23;897;-89
2023/01/22 01:10:37;;;;;;;17.42;10.13;;;;;;;1.00;81.76;100316.63;419464;23;971;-89
2023/01/22 01:11:01;;;;;;;18.05;10.57;;;;;;;1.03;81.53;100306.47;421570;23;817;-88
2023/01/22 01:11:20;;;;;;;16.60;10.15;;;;;;;0.84;81.31;100306.97;423621;23;978;-88
2023/01/22 01:11:46;;;;;;;14.57;10.10;;;;;;;0.82;81.87;100306.09;421750;23;958;-88
2023/01/22 01:11:59;;;;;;;15.90;10.88;;;;;;;0.88;82.21;100311.31;421780;23;914;-89
2023/01/22 01:12:12;;;;;;;16.05;10.82;;;;;;;0.90;82.59;100309.66;419718;23;932;-89
2023/01/22 01:12:24;;;;;;;15.75;9.95;;;;;;;0.87;82.22;100309.59;419740;23;1091;-89
2023/01/22 01:12:41;;;;;;;16.30;9.38;;;;;;;0.86;82.09;100313.00;421827;23;940;-90
2023/01/22 01:12:53;;;;;;;17.23;9.93;;;;;;;0.69;82.46;100312.69;421614;23;983;-88
2023/01/22 01:13:05;;;;;;;16.85;10.52;;;;;;;0.65;82.53;100309.22;421593;23;809;-90
2023/01/22 01:13:17;;;;;;;16.80;11.25;;;;;;;0.73;82.61;100311.91;421757;23;918;-89
2023/01/22 01:13:32;;;;;;;17.00;11.50;;;;;;;0.78;82.97;100316.25;419849;23;854;-89
2023/01/22 01:13:52;;;;;;;17.98;11.52;;;;;;;0.90;82.61;100314.75;419602;23;1047;-88
2023/01/22 01:14:06;;;;;;;16.63;10.95;;;;;;;0.96;82.88;100315.72;417908;23;1033;-88
2023/01/22 01:14:20;;;;;;;15.90;10.52;;;;;;;1.01;82.68;100313.25;417606;23;874;-89
2023/01/22 01:14:33;;;;;;;15.10;9.65;;;;;;;1.04;82.13;100313.28;417792;23;837;-88
2023/01/22 01:14:55;;;;;;;14.13;8.77;;;;;;;1.08;81.84;100309.09;419175;23;936;-88
2023/01/22 01:15:16;;;;;;;16.35;9.85;;;;;;;1.07;81.84;100313.34;421584;23;887;-89
2023/01/22 01:15:28;;;;;;;15.77;9.98;;;;;;;1.07;82.01;100313.34;419408;23;909;-89
2023/01/22 01:15:46;;;;;;;15.82;10.13;;;;;;;1.14;81.43;100310.03;421512;23;980;-89
2023/01/22 01:16:06;;;;;;;14.50;9.35;;;;;;;1.21;81.28;100308.47;421489;23;919;-89
2023/01/22 01:16:25;;;;;;;15.57;9.88;;;;;;;1.20;81.13;100312.69;421523;23;989;-88
2023/01/22 01:16:41;;;;;;;17.77;11.20;;;;;;;1.25;81.05;100311.91;425455;23;1160;-88
2023/01/22 01:16:54;;;;;;;17.10;10.80;;;;;;;1.22;80.98;100307.63;425531;23;995;-88
2023/01/22 01:17:12;;;;;;;16.98;10.25;;;;;;;1.25;81.47;100307.69;423524;23;967;-88
2023/01/22 01:17:25;;;;;;;16.42;9.80;;;;;;;1.27;80.98;100310.25;421535;23;1002;-89
2023/01/22 01:17:49;;;;;;;15.35;9.43;;;;;;;1.34;81.20;100306.94;421004;23;1019;-88
2023/01/22 01:18:03;;;;;;;16.63;9.55;;;;;;;1.31;80.88;100309.44;421757;23;897;-89
2023/01/22 01:18:17;;;;;;;15.95;9.02;;;;;;;1.29;80.70;100308.56;419670;23;938;-89
2023/01/22 01:18:30;;;;;;;16.02;9.02;;;;;;;1.28;80.42;100301.72;417578;23;1007;-89
2023/01/22 01:18:51;;;;;;;16.08;9.70;;;;;;;1.28;80.98;100314.53;419636;23;1011;-87
2023/01/22 01:19:08;;;;;;;17.05;9.68;;;;;;;1.17;81.02;100309.25;419649;23;1055;-87
2023/01/22 01:19:27;;;;;;;14.57;8.80;;;;;;;1.20;80.64;100312.69;421596;23;1162;-86
2023/01/22 01:19:39;;;;;;;15.50;9.23;;;;;;;1.24;80.83;100310.22;421684;23;971;-88
2023/01/22 01:19:51;;;;;;;15.20;9.32;;;;;;;1.24;80.80;100305.09;419549;23;1014;-89
2023/01/22 01:20:10;;;;;;;15.55;9.55;;;;;;;1.31;80.88;100312.00;423424;23;839;-89
2023/01/22 01:20:22;;;;;;;16.88;10.60;;;;;;;1.30;80.33;100305.19;421433;23;916;-89
2023/01/22 01:20:36;;;;;;;18.77;10.93;;;;;;;1.32;80.53;100303.50;423592;23;883;-89
2023/01/22 01:20:57;;;;;;;19.35;10.75;;;;;;;1.36;80.58;100310.38;418856;23;900;-88
2023/01/22 01:21:11;;;;;;;16.70;10.43;;;;;;;1.34;80.17;100309.50;419746;23;892;-89
2023/01/22 01:21:26;;;;;;;16.48;10.07;;;;;;;1.28;80.47;100306.84;417640;23;1527;-89
2023/01/22 01:21:47;;;;;;;16.58;9.70;;;;;;;1.28;80.39;100306.84;417633;23;964;-89
2023/01/22 01:21:59;;;;;;;17.30;9.82;;;;;;;1.30;80.59;100305.19;419479;23;976;-89
2023/01/22 01:22:12;;;;;;;17.60;9.73;;;;;;;1.33;80.48;100310.38;419651;23;900;-89
2023/01/22 01:22:39;;;;;;;17.48;10.18;;;;;;;1.32;79.93;100311.19;419588;23;906;-88
2023/01/22 01:22:54;;;;;;;18.25;10.55;;;;;;;1.34;80.49;100307.81;419644;23;968;-88
2023/01/22 01:23:08;;;;;;;17.80;11.05;;;;;;;1.37;80.73;100310.44;419722;23;1014;-88
2023/01/22 01:23:26;;;;;;;18.25;11.70;;;;;;;1.39;79.92;100307.91;417757;23;932;-89
2023/01/22 01:23:41;;;;;;;16.90;11.05;;;;;;;1.34;80.04;100306.94;417728;23;892;-88
2023/01/22 01:23:57;;;;;;;15.90;10.05;;;;;;;1.32;80.29;100313.75;417766;23;945;-88
2023/01/22 01:24:13;;;;;;;16.80;9.90;;;;;;;1.32;80.52;100308.63;421709;23;978;-86
2023/01/22 01:24:26;;;;;;;16.20;9.88;;;;;;;1.28;80.45;100306.84;423635;23;903;-86
2023/01/22 01:24:43;;;;;;;16.30;9.98;;;;;;;1.27;80.34;100312.81;422014;23;735;-87
2023/01/22 01:24:57;;;;;;;17.55;10.77;;;;;;;1.24;81.05;100312.75;423658;23;931;-87
2023/01/22 01:25:09;;;;;;;17.10;10.93;;;;;;;1.24;81.16;100307.66;423688;23;1522;-88
2023/01/22 01:25:21;;;;;;;16.95;10.98;;;;;;;1.22;80.18;100307.63;423356;23;1138;-89
2023/01/22 01:25:42;;;;;;;16.80;11.00;;;;;;;1.18;81.05;100310.97;423699;23;1954;-88
2023/01/22 01:25:59;;;;;;;16.60;10.57;;;;;;;1.16;80.71;100312.63;420473;23;1067;-88